Kendrick, Oklahoma
Current Conditions -  °F | °C
As of 8:15 PM on Friday 26 Dec 2014 (Local Time) from KCQB Reporting Station
Overcast Overcast  
Wind Chill: 40°   Ceiling: 1800
Heat Index: 46°   Visibility: 10mi
Dew Point: 41°   Wind: 14mph
Humidity: 81%   Direction: 330°NNW
Pressure: 30.04"   Gusts: NA
Location:  35.8204°N, 96.7126°W
Report Text: KCQB 270215Z AUTO 33012KT 10SM OVC018 08/05 A3004 RMK AO2
Loading
Personal Weather Stations






























Interactive Weather Map New forecast layout! Learn more

10-Day Weather Forecast

Advertisements
Track Severe Weather on mobile